Buckingham, Canada
Current Conditions -  °F | °C
As of 11:00 AM on Wednesday 22 Oct 2014 (Local Time) from CYND Reporting Station
Broken Clouds Broken Clouds  
Wind Chill: 44°   Ceiling: 3500
Heat Index: 48°   Visibility: 15mi
Dew Point: 37°   Wind: 9mph
Humidity: 66%   Direction: 60°ENE
Pressure: 30.3"   Gusts: 17mph
Location:  45.58°N, 75.42°W
Report Text: CYND 221500Z 06008G15KT 15SM BKN035 BKN060 09/03 A3030 RMK SC5SC2 SLP262
Loading
Personal Weather Stations






























Interactive Weather Map
Tropical Storm Tracking
New forecast layout! Learn more

10-Day Weather Forecast

Advertisements
Track Severe Weather on mobile